Time;durP1;ratioP1;P1;durP2;ratioP2;P2;SDS_P1;SDS_P2;PMS_P1;PMS_P2;Temp;Humidity;BMP_temperature;BMP_pressure;BME280_temperature;BME280_humidity;BME280_pressure;Samples;Min_cycle;Max_cycle;Signal;HPM_P1;HPM_P2
2022/02/24 00:01:08;;;;;;;42.40;19.90;;;3.60;52.90;;;;;;5055756;28;20679;-75
2022/02/24 00:03:34;;;;;;;31.42;13.85;;;3.60;53.00;;;;;;5052550;28;20037;-76
2022/02/24 00:06:00;;;;;;;;;;;3.50;53.10;;;;;;5053846;28;20555;-75
2022/02/24 00:08:26;;;;;;;29.38;14.73;;;3.50;52.60;;;;;;5042210;28;19925;-76
2022/02/24 00:10:53;;;;;;;28.30;14.73;;;3.40;52.80;;;;;;5052535;28;20041;-76
2022/02/24 00:13:19;;;;;;;;;;;3.40;53.10;;;;;;5053498;28;20414;-75
2022/02/24 00:15:45;;;;;;;32.25;15.82;;;3.40;52.60;;;;;;5053519;28;20332;-76
2022/02/24 00:18:12;;;;;;;29.95;14.63;;;3.30;52.50;;;;;;5051891;28;20049;-76
2022/02/24 00:20:38;;;;;;;;;;;3.30;52.80;;;;;;5051671;28;20562;-76
2022/02/24 00:23:05;;;;;;;39.97;17.33;;;3.40;52.80;;;;;;5053846;28;19924;-75
2022/02/24 00:25:31;;;;;;;39.80;18.20;;;3.30;53.10;;;;;;5050209;28;20115;-76
2022/02/24 00:27:57;;;;;;;39.95;18.10;;;3.40;53.30;;;;;;5052857;28;20406;-76
2022/02/24 00:30:23;;;;;;;39.50;18.00;;;3.30;53.40;;;;;;5053899;28;20027;-76
2022/02/24 00:32:50;;;;;;;39.92;18.02;;;3.30;53.50;;;;;;5050820;28;20048;-76
2022/02/24 00:35:16;;;;;;;23.38;11.90;;;3.20;53.50;;;;;;5068307;28;20040;-76
2022/02/24 00:37:42;;;;;;;22.10;9.73;;;3.20;53.70;;;;;;5050724;28;20043;-76
2022/02/24 00:40:09;;;;;;;26.75;8.52;;;3.20;53.70;;;;;;5052586;28;20045;-75
2022/02/24 00:42:35;;;;;;;13.55;5.65;;;3.10;53.70;;;;;;5049053;28;20033;-76
2022/02/24 00:45:01;;;;;;;16.65;6.43;;;3.10;54.00;;;;;;5052702;28;20426;-75
2022/02/24 00:47:27;;;;;;;;;;;3.10;54.00;;;;;;5044495;28;20040;-75
2022/02/24 00:49:53;;;;;;;40.45;16.88;;;3.10;53.40;;;;;;5050999;28;19939;-76
2022/02/24 00:52:20;;;;;;;24.25;12.93;;;3.10;53.80;;;;;;5050705;28;20099;-75
2022/02/24 00:54:48;;;;;;;17.75;7.28;;;3.00;54.00;;;;;;5047101;28;20020;-75
2022/02/24 00:57:14;;;;;;;12.70;5.90;;;3.00;54.20;;;;;;5068241;28;20044;-75
2022/02/24 00:59:41;;;;;;;11.88;5.35;;;2.90;54.30;;;;;;5058339;28;20387;-76
2022/02/24 01:02:08;;;;;;;33.17;14.52;;;2.90;54.60;;;;;;5052972;28;20033;-76
2022/02/24 01:04:34;;;;;;;46.70;19.88;;;2.90;54.10;;;;;;5050651;28;20045;-76
2022/02/24 01:07:00;;;;;;;20.90;11.02;;;2.90;54.60;;;;;;5053010;28;20044;-76
2022/02/24 01:09:26;;;;;;;23.45;11.88;;;2.90;54.60;;;;;;5052539;28;20481;-76
2022/02/24 01:11:52;;;;;;;22.05;9.95;;;2.90;54.80;;;;;;5052882;28;20038;-76
2022/02/24 01:14:19;;;;;;;23.00;10.65;;;2.90;54.80;;;;;;5050830;28;20115;-75
2022/02/24 01:16:45;;;;;;;29.27;13.73;;;2.90;54.60;;;;;;5033837;28;20405;-76
2022/02/24 01:19:11;;;;;;;30.77;13.40;;;2.90;54.80;;;;;;5066668;28;20032;-76
2022/02/24 01:21:37;;;;;;;27.75;13.73;;;2.90;54.90;;;;;;5049919;28;20036;-76
2022/02/24 01:24:04;;;;;;;23.00;11.63;;;2.80;54.90;;;;;;5068002;28;20102;-75
2022/02/24 01:26:30;;;;;;;28.02;13.07;;;2.80;55.00;;;;;;5066576;28;20037;-76
2022/02/24 01:28:57;;;;;;;22.85;12.25;;;2.80;55.00;;;;;;5051251;28;20044;-75
2022/02/24 01:31:23;;;;;;;27.65;11.75;;;2.80;55.10;;;;;;5049867;28;20041;-75
2022/02/24 01:33:49;;;;;;;21.30;10.35;;;2.80;55.00;;;;;;5052246;28;20025;-75
2022/02/24 01:36:15;;;;;;;23.00;11.07;;;2.70;55.10;;;;;;5046787;28;20098;-75
2022/02/24 01:38:41;;;;;;;21.88;11.05;;;2.70;55.10;;;;;;5036186;28;20494;-75
2022/02/24 01:41:07;;;;;;;20.80;10.68;;;2.70;55.10;;;;;;5051917;28;20045;-76
2022/02/24 01:43:34;;;;;;;22.40;10.02;;;2.70;55.10;;;;;;5051549;28;20044;-75
2022/02/24 01:46:01;;;;;;;20.10;9.27;;;2.70;55.10;;;;;;5050889;28;20470;-75
2022/02/24 01:48:27;;;;;;;18.13;8.27;;;2.60;55.30;;;;;;5061248;28;20032;-75
2022/02/24 01:50:53;;;;;;;;;;;2.50;55.50;;;;;;5061930;28;20051;-75
2022/02/24 01:53:19;;;;;;;13.02;6.63;;;2.40;54.50;;;;;;5051415;28;19916;-76
2022/02/24 01:55:45;;;;;;;16.55;6.75;;;2.40;55.00;;;;;;5051078;28;20240;-75
2022/02/24 01:58:11;;;;;;;15.55;7.03;;;2.40;55.10;;;;;;5049850;28;20032;-75
2022/02/24 02:00:40;;;;;;;17.38;7.85;;;2.30;55.00;;;;;;5034058;28;20031;-76
2022/02/24 02:03:06;;;;;;;19.08;8.68;;;2.30;55.00;;;;;;5049664;28;20056;-76
2022/02/24 02:05:32;;;;;;;;;;;2.30;55.10;;;;;;5035712;28;20045;-75
2022/02/24 02:07:58;;;;;;;22.98;9.80;;;2.30;54.80;;;;;;5048826;28;19944;-75
2022/02/24 02:10:25;;;;;;;24.10;10.13;;;2.20;55.00;;;;;;5049455;28;20529;-75
2022/02/24 02:12:54;;;;;;;24.95;12.40;;;2.20;55.20;;;;;;5067782;28;20040;-75
2022/02/24 02:15:21;;;;;;;18.50;10.23;;;2.20;55.20;;;;;;5032727;28;20486;-75
2022/02/24 02:17:47;;;;;;;20.48;11.02;;;2.20;55.20;;;;;;5050729;28;20119;-74
2022/02/24 02:20:15;;;;;;;30.92;13.23;;;2.20;55.40;;;;;;5050829;28;20041;-75
2022/02/24 02:22:42;;;;;;;26.40;13.80;;;2.10;55.40;;;;;;5050445;28;20039;-76
2022/02/24 02:25:10;;;;;;;24.50;12.07;;;2.10;55.60;;;;;;5048846;28;20370;-75
2022/02/24 02:27:38;;;;;;;23.77;11.23;;;2.10;55.70;;;;;;5033616;28;20039;-76
2022/02/24 02:30:07;;;;;;;23.17;11.10;;;2.10;55.80;;;;;;5049473;28;20041;-75
2022/02/24 02:32:33;;;;;;;22.25;9.75;;;2.10;56.00;;;;;;5050435;28;20033;-75
2022/02/24 02:34:59;;;;;;;20.70;9.35;;;2.10;56.10;;;;;;5050835;28;20045;-76
2022/02/24 02:37:25;;;;;;;18.40;9.40;;;2.10;56.20;;;;;;5059149;28;20429;-75
2022/02/24 02:39:51;;;;;;;22.27;10.30;;;2.00;56.20;;;;;;5059393;28;20036;-76
2022/02/24 02:42:18;;;;;;;17.70;9.73;;;2.00;56.20;;;;;;5049747;28;20561;-76
2022/02/24 02:44:44;;;;;;;21.05;10.27;;;2.00;56.20;;;;;;5059877;28;20036;-76
2022/02/24 02:47:10;;;;;;;17.75;9.18;;;2.00;56.20;;;;;;5048918;28;20029;-76
2022/02/24 02:49:38;;;;;;;17.50;8.23;;;2.00;56.20;;;;;;5037537;28;20127;-75
2022/02/24 02:52:06;;;;;;;17.55;8.70;;;2.00;56.20;;;;;;5064659;28;20098;-75
2022/02/24 02:54:33;;;;;;;20.90;10.82;;;2.00;56.20;;;;;;5050065;28;20025;-76
2022/02/24 02:57:00;;;;;;;21.13;10.63;;;2.00;56.20;;;;;;5048628;28;20044;-76
2022/02/24 02:59:26;;;;;;;14.93;8.65;;;2.00;56.30;;;;;;5050185;28;20043;-76
2022/02/24 03:01:54;;;;;;;16.70;9.30;;;2.00;56.50;;;;;;5054730;28;20040;-76
2022/02/24 03:04:21;;;;;;;16.95;7.93;;;1.90;56.30;;;;;;5048086;28;20076;-76
2022/02/24 03:06:48;;;;;;;13.95;7.88;;;1.90;56.40;;;;;;5065983;28;20039;-76
2022/02/24 03:09:14;;;;;;;16.10;9.50;;;1.90;56.40;;;;;;5048550;28;20045;-75
2022/02/24 03:11:40;;;;;;;21.02;9.80;;;1.90;56.50;;;;;;5047262;28;20069;-74
2022/02/24 03:14:06;;;;;;;15.50;8.18;;;1.90;56.00;;;;;;5050692;28;20516;-76
2022/02/24 03:16:33;;;;;;;14.77;8.05;;;1.90;56.60;;;;;;5053443;28;20032;-76
2022/02/24 03:18:59;;;;;;;14.23;7.20;;;1.80;56.50;;;;;;5057567;28;20412;-76
2022/02/24 03:21:25;;;;;;;13.77;7.65;;;1.80;56.50;;;;;;5053944;28;20032;-75
2022/02/24 03:23:51;;;;;;;13.73;7.60;;;1.80;56.50;;;;;;5058713;28;20051;-76
2022/02/24 03:26:17;;;;;;;;;;;1.80;56.60;;;;;;5063657;28;20040;-75
2022/02/24 03:28:43;;;;;;;19.20;7.55;;;1.60;56.30;;;;;;5062213;28;20298;-76
2022/02/24 03:31:09;;;;;;;21.27;8.75;;;1.50;56.70;;;;;;5053251;28;20075;-76
2022/02/24 03:33:37;;;;;;;;;;;1.50;56.80;;;;;;5054983;28;20155;-76
2022/02/24 03:36:03;;;;;;;15.32;7.45;;;1.40;56.40;;;;;;5053744;28;19920;-75
2022/02/24 03:38:29;;;;;;;20.80;10.80;;;1.40;55.90;;;;;;5053457;28;20061;-76
2022/02/24 03:40:55;;;;;;;19.38;9.32;;;1.40;56.50;;;;;;5051626;28;20528;-76
2022/02/24 03:43:21;;;;;;;19.60;9.15;;;1.40;56.40;;;;;;5059248;28;20036;-75
2022/02/24 03:45:47;;;;;;;15.30;7.97;;;1.40;56.30;;;;;;5052743;28;20415;-74
2022/02/24 03:48:13;;;;;;;22.40;9.73;;;1.50;56.40;;;;;;5050104;28;20095;-76
2022/02/24 03:50:40;;;;;;;15.52;9.07;;;1.50;56.50;;;;;;5051740;28;20047;-76
2022/02/24 03:53:06;;;;;;;16.20;9.07;;;1.50;56.50;;;;;;5051573;28;20044;-75
2022/02/24 03:55:32;;;;;;;16.23;8.02;;;1.40;56.50;;;;;;5068784;28;20033;-75
2022/02/24 03:57:58;;;;;;;18.48;9.32;;;1.40;56.10;;;;;;5041793;28;20040;-76
2022/02/24 04:00:24;;;;;;;20.60;10.18;;;1.40;56.70;;;;;;5037232;28;20431;-75
2022/02/24 04:02:50;;;;;;;23.40;11.50;;;1.40;56.80;;;;;;5051044;28;20034;-76
2022/02/24 04:05:16;;;;;;;;;;;1.40;56.80;;;;;;5053330;28;20059;-76
2022/02/24 04:07:43;;;;;;;23.85;12.20;;;1.40;56.50;;;;;;5051929;28;19920;-76
2022/02/24 04:10:10;;;;;;;24.45;11.25;;;1.40;56.60;;;;;;5054796;28;20029;-75
2022/02/24 04:12:36;;;;;;;19.70;11.18;;;1.40;56.60;;;;;;5023506;28;20037;-76
2022/02/24 04:15:02;;;;;;;17.85;10.60;;;1.40;56.90;;;;;;5061135;28;20067;-76
2022/02/24 04:17:28;;;;;;;23.10;11.00;;;1.30;56.40;;;;;;5055931;28;20421;-75
2022/02/24 04:19:54;;;;;;;22.25;10.65;;;1.30;57.10;;;;;;5039298;28;20099;-76
2022/02/24 04:22:21;;;;;;;18.30;10.05;;;1.30;57.00;;;;;;5053677;28;20036;-75
2022/02/24 04:24:47;;;;;;;20.63;9.57;;;1.30;57.00;;;;;;5054945;28;20060;-75
2022/02/24 04:27:13;;;;;;;17.33;8.48;;;1.30;57.80;;;;;;5052413;28;20459;-76
2022/02/24 04:29:39;;;;;;;19.23;9.00;;;1.30;57.00;;;;;;5038625;28;20024;-76
2022/02/24 04:32:05;;;;;;;;;;;1.30;57.00;;;;;;5053411;28;20052;-75
2022/02/24 04:34:31;;;;;;;24.92;10.93;;;1.20;56.00;;;;;;5035680;28;19920;-76
2022/02/24 04:36:57;;;;;;;19.77;10.77;;;1.20;56.70;;;;;;5069569;28;20047;-75
2022/02/24 04:39:24;;;;;;;16.60;9.27;;;1.20;56.90;;;;;;5068862;28;20676;-75
2022/02/24 04:41:50;;;;;;;16.73;8.77;;;1.20;57.10;;;;;;5051705;28;20041;-75
2022/02/24 04:44:16;;;;;;;18.13;8.80;;;1.10;57.30;;;;;;5054832;28;20530;-75
2022/02/24 04:46:42;;;;;;;17.05;8.43;;;1.10;57.30;;;;;;5059730;28;20035;-76
2022/02/24 04:49:08;;;;;;;15.13;8.63;;;1.10;57.40;;;;;;5051785;28;20036;-75
2022/02/24 04:51:34;;;;;;;16.52;8.77;;;1.10;57.40;;;;;;5055744;28;20086;-76
2022/02/24 04:54:00;;;;;;;19.48;8.50;;;1.10;57.40;;;;;;5053607;28;20087;-75
2022/02/24 04:56:26;;;;;;;14.93;8.57;;;1.10;56.90;;;;;;5052659;28;20037;-75
2022/02/24 04:58:53;;;;;;;17.42;8.82;;;1.10;57.50;;;;;;5065268;28;20047;-75
2022/02/24 05:01:19;;;;;;;17.00;8.07;;;1.00;57.40;;;;;;5053482;28;20136;-76
2022/02/24 05:03:45;;;;;;;17.27;8.68;;;1.00;57.50;;;;;;5065081;28;20087;-75
2022/02/24 05:06:11;;;;;;;15.73;8.63;;;1.00;57.50;;;;;;5052016;28;20118;-75
2022/02/24 05:08:37;;;;;;;16.20;8.50;;;1.00;57.50;;;;;;5050790;28;20037;-76
2022/02/24 05:11:04;;;;;;;17.88;8.95;;;0.90;57.50;;;;;;5054703;28;20029;-75
2022/02/24 05:13:30;;;;;;;18.75;9.02;;;0.80;57.60;;;;;;5052245;28;20033;-76
2022/02/24 05:15:56;;;;;;;21.02;9.70;;;0.80;57.70;;;;;;5052935;28;20062;-75
2022/02/24 05:18:22;;;;;;;21.40;9.27;;;0.80;57.70;;;;;;5068345;28;20124;-76
2022/02/24 05:20:48;;;;;;;17.52;9.07;;;0.80;57.70;;;;;;5054007;28;20025;-75
2022/02/24 05:23:14;;;;;;;19.15;9.15;;;0.80;57.50;;;;;;5051761;28;20041;-76
2022/02/24 05:25:40;;;;;;;18.23;9.15;;;0.80;57.50;;;;;;5067099;28;20037;-74
2022/02/24 05:28:09;;;;;;;20.55;8.75;;;0.80;57.40;;;;;;5068254;28;20032;-75
2022/02/24 05:30:36;;;;;;;16.20;8.85;;;0.80;57.40;;;;;;5050358;28;20127;-75
2022/02/24 05:33:03;;;;;;;20.52;9.43;;;0.70;57.10;;;;;;5051801;28;20094;-76
2022/02/24 05:35:30;;;;;;;27.70;11.32;;;0.70;57.90;;;;;;5051717;28;20021;-76
2022/02/24 05:37:56;;;;;;;28.40;12.82;;;0.70;58.00;;;;;;5062706;28;20047;-75
2022/02/24 05:40:23;;;;;;;24.25;11.05;;;0.70;58.00;;;;;;5054290;28;20037;-75
2022/02/24 05:42:50;;;;;;;28.83;11.55;;;0.70;57.80;;;;;;5050247;28;20033;-75
2022/02/24 05:45:16;;;;;;;;;;;0.70;57.80;;;;;;5051570;28;20033;-75
2022/02/24 05:47:42;;;;;;;22.15;10.80;;;0.70;57.40;;;;;;5052516;28;20350;-75
2022/02/24 05:50:09;;;;;;;27.85;12.95;;;0.60;57.30;;;;;;5044730;28;20484;-75
2022/02/24 05:52:36;;;;;;;30.80;13.35;;;0.60;57.40;;;;;;5067503;28;20047;-75
2022/02/24 05:55:04;;;;;;;25.90;11.90;;;0.60;57.50;;;;;;5052244;28;20447;-76
2022/02/24 05:57:30;;;;;;;24.45;11.27;;;0.60;57.60;;;;;;5065284;28;20052;-76
2022/02/24 05:59:56;;;;;;;29.73;13.18;;;0.70;57.80;;;;;;5051048;28;20048;-76
2022/02/24 06:02:22;;;;;;;26.33;13.32;;;0.70;57.70;;;;;;5052402;28;20398;-76
2022/02/24 06:04:48;;;;;;;23.67;11.90;;;0.70;57.70;;;;;;5051160;28;20052;-75
2022/02/24 06:07:15;;;;;;;31.60;12.85;;;0.70;57.70;;;;;;5050643;28;20041;-75
2022/02/24 06:09:41;;;;;;;31.65;12.75;;;0.70;57.70;;;;;;5052396;28;20045;-75
2022/02/24 06:12:07;;;;;;;28.10;12.43;;;0.70;57.70;;;;;;5050154;28;20119;-76
2022/02/24 06:14:33;;;;;;;40.03;16.42;;;0.70;57.70;;;;;;5068829;28;20078;-75
2022/02/24 06:17:00;;;;;;;39.28;18.23;;;0.80;57.70;;;;;;5055528;28;20025;-75
2022/02/24 06:19:26;;;;;;;33.53;14.43;;;0.70;57.60;;;;;;5050806;28;20050;-76
2022/02/24 06:21:52;;;;;;;34.40;15.07;;;0.70;58.10;;;;;;5065665;28;20104;-75
2022/02/24 06:24:37;;;;;;;35.38;14.18;;;0.60;57.50;;;;;;5035249;28;20383;-76
2022/02/24 06:27:03;;;;;;;31.60;15.18;;;0.70;58.20;;;;;;5050785;28;20461;-76
2022/02/24 06:29:29;;;;;;;36.03;15.63;;;0.70;57.90;;;;;;5051489;28;20057;-76
2022/02/24 06:31:55;;;;;;;48.47;19.70;;;0.70;57.80;;;;;;5051709;28;20021;-76
2022/02/24 06:34:22;;;;;;;49.72;24.38;;;0.80;57.80;;;;;;5050635;28;20194;-75
2022/02/24 06:36:48;;;;;;;34.80;17.83;;;0.80;57.70;;;;;;5047440;28;20451;-75
2022/02/24 06:39:14;;;;;;;23.40;12.88;;;0.90;57.80;;;;;;5055592;28;20056;-75
2022/02/24 06:41:40;;;;;;;27.60;13.00;;;0.90;57.80;;;;;;5048935;28;20367;-75
2022/02/24 06:44:06;;;;;;;41.53;21.02;;;0.90;57.70;;;;;;5050982;28;20029;-75
2022/02/24 06:46:32;;;;;;;65.75;26.95;;;1.00;57.70;;;;;;5050391;28;20489;-75
2022/02/24 06:48:58;;;;;;;89.18;36.08;;;1.00;57.60;;;;;;5050596;28;20048;-76
2022/02/24 06:51:24;;;;;;;84.00;31.58;;;1.10;57.70;;;;;;5056188;28;20040;-76
2022/02/24 06:53:50;;;;;;;68.35;29.52;;;1.10;57.70;;;;;;5062507;28;20053;-75
2022/02/24 06:56:16;;;;;;;78.30;30.67;;;1.20;57.60;;;;;;5054523;28;20033;-76
2022/02/24 06:58:42;;;;;;;75.72;33.35;;;1.20;57.70;;;;;;5062783;28;20059;-76
2022/02/24 07:01:09;;;;;;;72.63;31.88;;;1.30;57.80;;;;;;5033857;28;20029;-75
2022/02/24 07:03:35;;;;;;;64.78;30.80;;;1.40;57.80;;;;;;5049020;28;20044;-76
2022/02/24 07:06:02;;;;;;;44.47;23.05;;;1.40;57.80;;;;;;5049689;28;20120;-75
2022/02/24 07:08:29;;;;;;;38.50;19.83;;;1.50;57.90;;;;;;5066532;28;20493;-76
2022/02/24 07:10:55;;;;;;;37.80;18.83;;;1.50;57.40;;;;;;5066631;28;20045;-76
2022/02/24 07:13:21;;;;;;;37.22;19.52;;;1.60;57.90;;;;;;5055863;28;20044;-75
2022/02/24 07:15:47;;;;;;;32.67;16.52;;;1.70;57.90;;;;;;5049993;28;20037;-76
2022/02/24 07:18:13;;;;;;;32.42;17.73;;;1.80;58.00;;;;;;5048918;28;20110;-75
2022/02/24 07:20:39;;;;;;;34.60;17.67;;;1.80;58.20;;;;;;5057000;28;20501;-76
2022/02/24 07:23:05;;;;;;;27.58;16.52;;;1.80;58.40;;;;;;5068514;28;20043;-75
2022/02/24 07:25:31;;;;;;;30.80;16.98;;;1.90;58.50;;;;;;5055580;28;20070;-75
2022/02/24 07:27:57;;;;;;;28.73;17.17;;;2.00;58.50;;;;;;5050148;28;20067;-76
2022/02/24 07:30:23;;;;;;;30.67;18.02;;;2.10;58.50;;;;;;5049715;28;20524;-76
2022/02/24 07:32:49;;;;;;;37.83;17.27;;;2.10;58.60;;;;;;5043551;28;20048;-75
2022/02/24 07:35:16;;;;;;;32.33;16.98;;;2.20;58.60;;;;;;5063347;28;20030;-75
2022/02/24 07:37:42;;;;;;;33.92;17.10;;;2.40;58.60;;;;;;5057538;28;20367;-75
2022/02/24 07:40:10;;;;;;;41.88;20.63;;;2.40;58.70;;;;;;5078137;28;20482;-75
2022/02/24 07:42:36;;;;;;;26.60;15.85;;;2.50;58.20;;;;;;5061757;28;20037;-75
2022/02/24 07:45:22;;;;;;;32.75;18.17;;;2.70;58.80;;;;;;5050070;28;20525;-75
2022/02/24 07:47:49;;;;;;;26.83;14.88;;;2.80;58.40;;;;;;5034423;28;20025;-76
2022/02/24 07:50:15;;;;;;;30.40;15.82;;;3.00;58.70;;;;;;5050185;28;20395;-75
2022/02/24 07:53:02;;;;;;;46.97;25.58;;;3.10;58.90;;;;;;5049913;28;20025;-76
2022/02/24 07:55:28;;;;;;;32.63;18.85;;;3.30;59.10;;;;;;5050821;28;20289;-74
2022/02/24 07:57:54;;;;;;;;;;;3.40;58.90;;;;;;5050451;28;20033;-75
2022/02/24 08:00:20;;;;;;;32.97;17.23;;;3.60;58.40;;;;;;5053536;28;20419;-74
2022/02/24 08:02:47;;;;;;;32.58;19.88;;;3.70;58.10;;;;;;5057296;28;20028;-75
2022/02/24 08:05:14;;;;;;;33.40;18.02;;;3.90;58.20;;;;;;5070183;28;20422;-75
2022/02/24 08:07:40;;;;;;;32.83;18.15;;;4.00;59.20;;;;;;5036196;28;20048;-75
2022/02/24 08:10:08;;;;;;;32.42;18.55;;;4.30;58.50;;;;;;5051513;28;20150;-76
2022/02/24 08:12:40;;;;;;;67.53;36.92;;;4.40;58.20;;;;;;5088074;28;20029;-76
2022/02/24 08:15:25;;;;;;;52.67;25.67;;;4.70;58.30;;;;;;5052140;28;20120;-75
2022/02/24 08:17:54;;;;;;;55.13;29.48;;;5.00;58.20;;;;;;5053530;28;20382;-76
2022/02/24 08:20:21;;;;;;;32.30;17.98;;;5.20;57.20;;;;;;5052822;28;20043;-76
2022/02/24 08:25:34;;;;;;;31.70;16.50;;;5.80;57.30;;;;;;5053067;28;20093;-76
2022/02/24 08:28:00;;;;;;;;;;;6.50;56.90;;;;;;5053351;28;20037;-75
2022/02/24 08:30:27;;;;;;;23.48;13.18;;;7.60;55.00;;;;;;5051566;28;19968;-75
2022/02/24 08:32:54;;;;;;;24.65;13.60;;;8.60;53.10;;;;;;5070483;28;20488;-75
2022/02/24 08:35:23;;;;;;;23.75;12.65;;;9.20;51.90;;;;;;5053522;28;20025;-76
2022/02/24 08:37:50;;;;;;;23.65;13.35;;;9.80;50.90;;;;;;5055376;28;20084;-76
2022/02/24 08:40:20;;;;;;;21.45;12.40;;;10.50;50.50;;;;;;5051077;28;20044;-76
2022/02/24 08:42:48;;;;;;;22.35;12.05;;;11.50;48.70;;;;;;5037571;28;20052;-76
2022/02/24 08:45:14;;;;;;;18.10;10.57;;;12.70;46.90;;;;;;5049696;28;20124;-76
2022/02/24 08:47:41;;;;;;;;;;;13.50;44.80;;;;;;5054283;28;20143;-76
2022/02/24 08:50:10;;;;;;;21.30;11.20;;;14.20;46.70;;;;;;5046542;28;19927;-76
2022/02/24 08:52:36;;;;;;;21.30;11.80;;;15.20;43.30;;;;;;5061501;28;20047;-76
2022/02/24 08:55:03;;;;;;;21.67;11.63;;;16.50;40.80;;;;;;5052412;28;20636;-75
2022/02/24 08:57:29;;;;;;;30.52;15.85;;;17.60;38.70;;;;;;5061133;28;20040;-77
2022/02/24 08:59:55;;;;;;;26.17;13.15;;;18.70;37.70;;;;;;5045132;28;20091;-76
2022/02/24 09:02:21;;;;;;;24.88;13.10;;;19.70;36.70;;;;;;5052485;28;20028;-77
2022/02/24 09:04:48;;;;;;;23.38;12.43;;;20.60;35.20;;;;;;5050871;28;20076;-77
2022/02/24 09:07:15;;;;;;;22.15;12.45;;;21.20;33.50;;;;;;5062645;28;20045;-77
2022/02/24 09:09:42;;;;;;;20.05;11.40;;;21.90;32.00;;;;;;5051930;28;20028;-75
2022/02/24 09:12:09;;;;;;;18.77;11.05;;;22.50;31.30;;;;;;5051950;28;20044;-76
2022/02/24 09:14:36;;;;;;;22.33;10.43;;;22.90;29.80;;;;;;5052077;28;20362;-77
2022/02/24 09:17:03;;;;;;;;;;;23.60;28.60;;;;;;5054225;28;20103;-76
2022/02/24 09:19:29;;;;;;;20.75;11.23;;;24.40;30.50;;;;;;5052212;28;19920;-75
2022/02/24 09:21:56;;;;;;;;;;;25.10;27.50;;;;;;5067316;28;20127;-76
2022/02/24 09:24:22;;;;;;;19.20;10.23;;;25.80;28.40;;;;;;5052257;28;19951;-76
2022/02/24 09:26:49;;;;;;;12.88;7.00;;;26.20;25.70;;;;;;5068463;28;20059;-75
2022/02/24 09:29:15;;;;;;;10.70;6.57;;;26.40;24.50;;;;;;5053389;28;20060;-76
2022/02/24 09:31:42;;;;;;;13.90;7.10;;;27.10;24.20;;;;;;5051175;28;20136;-76
2022/02/24 09:34:09;;;;;;;12.30;7.00;;;27.70;22.10;;;;;;5051346;28;20402;-76
2022/02/24 09:36:35;;;;;;;11.10;6.00;;;28.30;21.40;;;;;;5052597;28;20045;-75
2022/02/24 09:39:01;;;;;;;8.73;5.20;;;29.00;20.90;;;;;;5052702;28;20045;-77
2022/02/24 09:41:27;;;;;;;8.65;4.93;;;29.40;19.10;;;;;;5052862;28;20703;-76
2022/02/24 09:43:54;;;;;;;9.32;5.10;;;29.60;18.10;;;;;;5044577;28;20040;-75
2022/02/24 09:46:21;;;;;;;12.32;4.53;;;29.70;18.30;;;;;;5065250;28;20040;-75
2022/02/24 09:48:47;;;;;;;7.90;3.97;;;30.30;18.20;;;;;;5061539;28;20037;-77
2022/02/24 09:51:17;;;;;;;6.85;4.40;;;30.70;17.00;;;;;;5063668;28;20037;-75
2022/02/24 09:53:46;;;;;;;7.68;4.20;;;30.70;16.40;;;;;;5050854;28;20079;-76
2022/02/24 09:56:31;;;;;;;8.85;4.57;;;29.70;17.00;;;;;;5051292;28;20110;-76
2022/02/24 09:59:00;;;;;;;7.80;4.18;;;27.80;18.80;;;;;;5052577;28;20631;-76
2022/02/24 10:01:26;;;;;;;7.97;3.85;;;27.80;18.80;;;;;;5050436;28;20394;-76
2022/02/24 10:04:01;;;;;;;7.20;3.83;;;27.60;18.20;;;;;;5047586;28;20132;-76
2022/02/24 10:06:40;;;;;;;6.47;3.85;;;26.10;18.60;;;;;;5050714;28;20047;-76
2022/02/24 10:09:08;;;;;;;10.10;6.45;;;25.10;19.70;;;;;;5055767;28;20041;-75
2022/02/24 10:11:36;;;;;;;8.75;4.55;;;25.50;18.90;;;;;;5063016;28;20021;-76
2022/02/24 10:14:23;;;;;;;6.50;3.45;;;25.90;18.30;;;;;;5036088;28;20052;-75
2022/02/24 10:17:08;;;;;;;6.15;3.33;;;25.40;19.30;;;;;;5052417;28;20087;-76
2022/02/24 10:19:53;;;;;;;8.23;3.90;;;25.10;19.00;;;;;;5052143;28;20025;-76
2022/02/24 10:22:26;;;;;;;6.30;3.28;;;24.90;19.50;;;;;;5057543;28;20124;-76
2022/02/24 10:25:15;;;;;;;9.32;3.40;;;25.00;18.70;;;;;;5043212;28;20040;-76
2022/02/24 10:27:44;;;;;;;7.07;2.63;;;25.00;18.90;;;;;;5057650;28;20033;-76
2022/02/24 10:30:13;;;;;;;6.55;2.80;;;24.40;19.00;;;;;;5042833;28;20086;-76
2022/02/24 10:33:01;;;;;;;8.70;3.80;;;23.30;20.10;;;;;;5046478;28;20123;-75
2022/02/24 10:35:46;;;;;;;9.80;4.50;;;22.60;20.70;;;;;;5044216;28;20498;-76
2022/02/24 10:38:14;;;;;;;6.57;2.50;;;23.00;20.80;;;;;;5056845;28;20092;-76
2022/02/24 10:40:43;;;;;;;7.55;3.60;;;23.50;19.90;;;;;;5049894;28;20037;-75
2022/02/24 10:43:48;;;;;;;6.10;2.70;;;23.80;19.30;;;;;;5050502;28;20037;-76
2022/02/24 10:46:17;;;;;;;5.95;2.72;;;23.30;19.70;;;;;;5048618;28;20421;-75
2022/02/24 10:49:02;;;;;;;9.13;4.95;;;23.10;19.90;;;;;;5042504;28;20548;-75
2022/02/24 10:51:31;;;;;;;8.75;4.32;;;22.80;20.50;;;;;;5049547;28;20048;-76
2022/02/24 10:54:16;;;;;;;7.70;3.13;;;24.20;19.80;;;;;;5050516;28;20055;-76
2022/02/24 10:56:44;;;;;;;7.80;3.08;;;24.20;19.10;;;;;;5047566;28;20033;-76
2022/02/24 10:59:14;;;;;;;8.60;4.45;;;24.30;19.20;;;;;;5051629;28;20025;-76
2022/02/24 11:01:40;;;;;;;11.38;5.25;;;24.30;19.40;;;;;;5050274;28;20041;-76
2022/02/24 11:04:08;;;;;;;;;;;24.70;19.20;;;;;;5052264;28;20053;-75
2022/02/24 11:06:54;;;;;;;7.45;3.20;;;24.00;20.10;;;;;;5050128;28;19928;-76
2022/02/24 11:09:20;;;;;;;7.17;3.67;;;23.40;20.60;;;;;;5050519;28;20040;-76
2022/02/24 11:11:48;;;;;;;6.65;3.22;;;25.20;18.90;;;;;;5050992;28;20051;-75
2022/02/24 11:14:14;;;;;;;5.32;2.20;;;26.40;17.50;;;;;;5063669;28;20394;-76
2022/02/24 11:16:41;;;;;;;8.50;3.25;;;26.20;17.20;;;;;;5044727;28;20290;-75
2022/02/24 11:19:07;;;;;;;7.55;3.65;;;26.80;16.90;;;;;;5057122;28;20041;-76
2022/02/24 11:21:34;;;;;;;7.72;3.58;;;26.80;17.00;;;;;;5049838;28;20033;-76
2022/02/24 11:24:00;;;;;;;8.07;3.80;;;26.90;17.20;;;;;;5048680;28;20037;-76
2022/02/24 11:27:06;;;;;;;4.75;2.33;;;27.00;18.10;;;;;;5050290;28;20099;-76
2022/02/24 11:29:45;;;;;;;7.72;3.08;;;28.30;16.80;;;;;;5051259;28;20038;-76
2022/02/24 11:32:13;;;;;;;7.40;3.38;;;28.90;16.00;;;;;;5052521;28;20442;-76
2022/02/24 11:35:17;;;;;;;8.77;2.35;;;28.00;16.40;;;;;;5052694;28;20044;-76
2022/02/24 11:37:47;;;;;;;4.85;2.55;;;26.70;17.30;;;;;;5069506;28;20037;-76
2022/02/24 11:40:36;;;;;;;6.15;2.83;;;25.50;17.70;;;;;;5070737;28;20042;-76
2022/02/24 11:43:23;;;;;;;6.93;3.80;;;25.00;19.10;;;;;;5081793;28;20048;-76
2022/02/24 11:45:51;;;;;;;5.97;3.13;;;25.60;18.00;;;;;;5052269;28;20048;-76
2022/02/24 11:48:37;;;;;;;6.50;2.40;;;25.10;18.60;;;;;;5071493;28;20045;-75
2022/02/24 11:51:22;;;;;;;3.72;1.77;;;25.80;17.50;;;;;;5085397;28;20485;-76
2022/02/24 11:53:50;;;;;;;6.20;2.97;;;25.80;17.40;;;;;;5052805;28;20122;-76
2022/02/24 11:56:35;;;;;;;5.97;2.50;;;26.50;16.40;;;;;;5054850;28;20091;-76
2022/02/24 11:59:04;;;;;;;6.97;2.83;;;27.00;16.50;;;;;;5053066;28;20063;-75
2022/02/24 12:01:53;;;;;;;5.43;2.25;;;27.50;16.30;;;;;;5052373;28;20041;-75
2022/02/24 12:04:45;;;;;;;6.05;2.25;;;27.40;15.90;;;;;;5085506;28;20131;-75
2022/02/24 12:07:30;;;;;;;5.95;3.38;;;28.20;16.20;;;;;;5051611;28;20044;-75
2022/02/24 12:10:16;;;;;;;5.57;2.83;;;28.50;15.80;;;;;;5054239;28;20052;-76
2022/02/24 12:12:42;;;;;;;9.48;3.97;;;30.00;15.30;;;;;;5052783;28;20086;-75
2022/02/24 12:15:18;;;;;;;6.97;3.65;;;31.10;14.20;;;;;;5045707;28;20048;-76
2022/02/24 12:17:49;;;;;;;5.65;2.53;;;31.60;13.30;;;;;;5069015;28;20396;-76
2022/02/24 12:20:35;;;;;;;8.05;2.70;;;30.80;13.60;;;;;;5065689;28;20033;-76
2022/02/24 12:23:22;;;;;;;4.77;2.50;;;30.40;14.30;;;;;;5063972;28;20037;-75
2022/02/24 12:26:27;;;;;;;6.55;2.53;;;31.40;14.30;;;;;;5052405;28;20128;-76
2022/02/24 12:29:37;;;;;;;6.22;3.20;;;32.50;12.60;;;;;;5054016;28;20045;-76
2022/02/24 12:32:06;;;;;;;6.57;2.80;;;32.70;13.00;;;;;;5052028;28;20136;-77
2022/02/24 12:34:34;;;;;;;8.00;3.67;;;33.50;11.80;;;;;;5052385;28;20036;-77
2022/02/24 12:37:20;;;;;;;6.00;2.97;;;32.80;12.20;;;;;;5052452;28;20065;-76
2022/02/24 12:39:46;;;;;;;6.28;2.42;;;33.30;12.50;;;;;;5069095;28;20055;-76
2022/02/24 12:42:13;;;;;;;6.05;2.88;;;34.20;12.10;;;;;;5053677;28;20036;-76
2022/02/24 12:44:41;;;;;;;5.43;2.67;;;34.90;11.00;;;;;;5052210;28;20116;-76
2022/02/24 12:47:08;;;;;;;5.53;2.80;;;35.40;11.10;;;;;;5054067;28;20029;-76
2022/02/24 12:49:54;;;;;;;7.35;3.78;;;35.60;11.30;;;;;;5046141;28;20037;-76
2022/02/24 12:52:40;;;;;;;4.95;2.65;;;35.30;11.40;;;;;;5069670;28;20090;-75
2022/02/24 12:55:06;;;;;;;8.38;3.17;;;36.80;11.20;;;;;;5069172;28;20040;-76
2022/02/24 12:57:33;;;;;;;5.93;2.70;;;38.20;9.90;;;;;;5055087;28;20072;-75